sensor_id;sensor_type;location;lat;lon;timestamp;pressure;altitude;pressure_sealevel;temperature;humidity
81680;BME280;74989;52.210;5.148;2024-03-23T00:53:48;101126.22;;;8.55;85.42
81680;BME280;74989;52.210;5.148;2024-03-23T00:56:14;101125.19;;;8.56;84.67
81680;BME280;74989;52.210;5.148;2024-03-23T00:58:40;101115.03;;;8.59;85.26
81680;BME280;74989;52.210;5.148;2024-03-23T01:01:06;101115.53;;;8.68;84.73
81680;BME280;74989;52.210;5.148;2024-03-23T01:03:33;101107.72;;;8.61;84.74
81680;BME280;74989;52.210;5.148;2024-03-23T01:05:59;101111.59;;;8.59;84.81
81680;BME280;74989;52.210;5.148;2024-03-23T01:08:27;101076.94;;;8.44;84.25
81680;BME280;74989;52.210;5.148;2024-03-23T01:10:56;101101.13;;;8.52;85.15
81680;BME280;74989;52.210;5.148;2024-03-23T01:13:23;101099.81;;;8.43;83.83
81680;BME280;74989;52.210;5.148;2024-03-23T01:15:49;101090.78;;;8.39;84.69
81680;BME280;74989;52.210;5.148;2024-03-23T01:18:17;101095.44;;;8.37;84.22
81680;BME280;74989;52.210;5.148;2024-03-23T01:20:43;101091.47;;;8.28;84.48
81680;BME280;74989;52.210;5.148;2024-03-23T01:23:09;101078.88;;;8.12;84.51
81680;BME280;74989;52.210;5.148;2024-03-23T01:25:36;101075.31;;;8.06;84.65
81680;BME280;74989;52.210;5.148;2024-03-23T01:28:04;101074.41;;;7.94;84.71
81680;BME280;74989;52.210;5.148;2024-03-23T01:30:30;101075.34;;;7.82;84.88
81680;BME280;74989;52.210;5.148;2024-03-23T01:32:56;101077.66;;;7.72;85.41
81680;BME280;74989;52.210;5.148;2024-03-23T01:35:22;101070.69;;;7.59;86.00
81680;BME280;74989;52.210;5.148;2024-03-23T01:37:49;101066.09;;;7.48;85.27
81680;BME280;74989;52.210;5.148;2024-03-23T01:40:17;101059.56;;;7.32;85.48
81680;BME280;74989;52.210;5.148;2024-03-23T01:42:56;101063.53;;;7.17;86.33
81680;BME280;74989;52.210;5.148;2024-03-23T01:45:22;101064.22;;;7.06;86.80
81680;BME280;74989;52.210;5.148;2024-03-23T01:47:49;101058.03;;;6.93;87.16
81680;BME280;74989;52.210;5.148;2024-03-23T01:50:14;101067.72;;;6.93;87.51
81680;BME280;74989;52.210;5.148;2024-03-23T01:52:42;101065.34;;;6.91;87.42
81680;BME280;74989;52.210;5.148;2024-03-23T01:55:08;101046.78;;;6.86;87.54
81680;BME280;74989;52.210;5.148;2024-03-23T01:57:35;101055.00;;;6.90;87.98
81680;BME280;74989;52.210;5.148;2024-03-23T02:00:02;101056.03;;;6.89;87.63
81680;BME280;74989;52.210;5.148;2024-03-23T02:02:41;101029.66;;;6.71;87.75
81680;BME280;74989;52.210;5.148;2024-03-23T02:05:07;101057.44;;;6.91;88.04
81680;BME280;74989;52.210;5.148;2024-03-23T02:07:34;101047.91;;;6.97;86.88
81680;BME280;74989;52.210;5.148;2024-03-23T02:10:00;101056.53;;;7.04;87.25
81680;BME280;74989;52.210;5.148;2024-03-23T02:12:27;101027.75;;;6.91;87.16
81680;BME280;74989;52.210;5.148;2024-03-23T02:14:53;101049.41;;;7.11;86.86
81680;BME280;74989;52.210;5.148;2024-03-23T02:17:21;101048.59;;;7.17;86.41
81680;BME280;74989;52.210;5.148;2024-03-23T02:19:47;101045.78;;;7.12;86.46
81680;BME280;74989;52.210;5.148;2024-03-23T02:22:14;101045.34;;;7.15;86.63
81680;BME280;74989;52.210;5.148;2024-03-23T02:24:42;101042.22;;;7.25;86.04
81680;BME280;74989;52.210;5.148;2024-03-23T02:27:09;101036.78;;;7.26;86.46
81680;BME280;74989;52.210;5.148;2024-03-23T02:29:35;101029.44;;;7.35;85.99
81680;BME280;74989;52.210;5.148;2024-03-23T02:32:01;101034.03;;;7.39;85.95
81680;BME280;74989;52.210;5.148;2024-03-23T02:34:27;101034.44;;;7.43;85.33
81680;BME280;74989;52.210;5.148;2024-03-23T02:36:54;101024.97;;;7.35;85.00
81680;BME280;74989;52.210;5.148;2024-03-23T02:39:19;101027.81;;;7.34;85.03
81680;BME280;74989;52.210;5.148;2024-03-23T02:41:47;101019.56;;;7.30;85.41
81680;BME280;74989;52.210;5.148;2024-03-23T02:44:13;101016.50;;;7.33;85.32
81680;BME280;74989;52.210;5.148;2024-03-23T02:46:40;101023.34;;;7.34;84.03
81680;BME280;74989;52.210;5.148;2024-03-23T02:49:06;101006.09;;;7.20;84.80
81680;BME280;74989;52.210;5.148;2024-03-23T02:51:33;101016.53;;;7.27;83.32
81680;BME280;74989;52.210;5.148;2024-03-23T02:53:59;101015.41;;;7.16;83.72
81680;BME280;74989;52.210;5.148;2024-03-23T02:56:25;101016.72;;;7.07;83.89
81680;BME280;74989;52.210;5.148;2024-03-23T02:58:52;101010.69;;;7.00;84.08
81680;BME280;74989;52.210;5.148;2024-03-23T03:01:19;101024.88;;;6.92;83.76
81680;BME280;74989;52.210;5.148;2024-03-23T03:03:45;101014.22;;;6.87;83.37
81680;BME280;74989;52.210;5.148;2024-03-23T03:06:11;101020.97;;;6.77;83.31
81680;BME280;74989;52.210;5.148;2024-03-23T03:08:37;101017.63;;;6.63;83.49
81680;BME280;74989;52.210;5.148;2024-03-23T03:11:04;101015.84;;;6.51;83.81
81680;BME280;74989;52.210;5.148;2024-03-23T03:13:30;100999.56;;;6.36;84.45
81680;BME280;74989;52.210;5.148;2024-03-23T03:15:58;101013.72;;;6.35;84.21
81680;BME280;74989;52.210;5.148;2024-03-23T03:18:24;101018.00;;;6.22;84.26
81680;BME280;74989;52.210;5.148;2024-03-23T03:20:54;101019.25;;;6.13;84.80
81680;BME280;74989;52.210;5.148;2024-03-23T03:23:19;101016.84;;;6.05;84.93
81680;BME280;74989;52.210;5.148;2024-03-23T03:25:46;101011.44;;;5.94;85.04
81680;BME280;74989;52.210;5.148;2024-03-23T03:28:12;101008.81;;;5.94;85.46
81680;BME280;74989;52.210;5.148;2024-03-23T03:30:38;101010.25;;;5.90;85.26
81680;BME280;74989;52.210;5.148;2024-03-23T03:33:05;101004.97;;;5.83;85.32
81680;BME280;74989;52.210;5.148;2024-03-23T03:35:32;101011.44;;;5.81;85.30
81680;BME280;74989;52.210;5.148;2024-03-23T03:37:58;101004.56;;;5.80;85.11
81680;BME280;74989;52.210;5.148;2024-03-23T03:40:24;100999.13;;;5.75;84.89
81680;BME280;74989;52.210;5.148;2024-03-23T03:42:50;100996.53;;;5.68;85.18
81680;BME280;74989;52.210;5.148;2024-03-23T03:45:17;100998.56;;;5.66;85.88
81680;BME280;74989;52.210;5.148;2024-03-23T03:47:42;100972.56;;;5.51;85.45
81680;BME280;74989;52.210;5.148;2024-03-23T03:50:11;100994.75;;;5.62;85.47
81680;BME280;74989;52.210;5.148;2024-03-23T03:52:36;100990.31;;;5.56;85.80
81680;BME280;74989;52.210;5.148;2024-03-23T03:55:03;100985.69;;;5.51;85.56
81680;BME280;74989;52.210;5.148;2024-03-23T03:57:36;100963.53;;;5.34;85.68
81680;BME280;74989;52.210;5.148;2024-03-23T04:00:04;100984.28;;;5.42;85.81
81680;BME280;74989;52.210;5.148;2024-03-23T04:02:30;100961.13;;;5.26;85.78
81680;BME280;74989;52.210;5.148;2024-03-23T04:04:56;100983.09;;;5.38;85.56
81680;BME280;74989;52.210;5.148;2024-03-23T04:07:24;100981.88;;;5.34;85.80
81680;BME280;74989;52.210;5.148;2024-03-23T04:09:51;100990.13;;;5.44;86.16
81680;BME280;74989;52.210;5.148;2024-03-23T04:12:16;100978.63;;;5.52;86.67
81680;BME280;74989;52.210;5.148;2024-03-23T04:14:43;100978.81;;;5.57;85.03
81680;BME280;74989;52.210;5.148;2024-03-23T04:17:08;100976.22;;;5.50;84.29
81680;BME280;74989;52.210;5.148;2024-03-23T04:19:35;100974.22;;;5.33;85.17
81680;BME280;74989;52.210;5.148;2024-03-23T04:22:01;100976.25;;;5.24;85.96
81680;BME280;74989;52.210;5.148;2024-03-23T04:24:30;100979.28;;;5.08;85.90
81680;BME280;74989;52.210;5.148;2024-03-23T04:26:55;100981.28;;;4.93;85.51
81680;BME280;74989;52.210;5.148;2024-03-23T04:29:23;100979.84;;;4.77;85.44
81680;BME280;74989;52.210;5.148;2024-03-23T04:31:48;100980.03;;;4.69;86.44
81680;BME280;74989;52.210;5.148;2024-03-23T04:34:15;100980.63;;;4.71;87.55
81680;BME280;74989;52.210;5.148;2024-03-23T04:36:40;100975.44;;;4.78;87.16
81680;BME280;74989;52.210;5.148;2024-03-23T04:39:07;100973.59;;;4.78;86.80
81680;BME280;74989;52.210;5.148;2024-03-23T04:41:37;100959.50;;;4.73;86.80
81680;BME280;74989;52.210;5.148;2024-03-23T04:44:04;100973.41;;;4.80;86.35
81680;BME280;74989;52.210;5.148;2024-03-23T04:46:30;100975.81;;;4.88;85.73
81680;BME280;74989;52.210;5.148;2024-03-23T04:48:56;100982.69;;;4.82;85.43
81680;BME280;74989;52.210;5.148;2024-03-23T04:51:23;100957.66;;;4.60;86.02
81680;BME280;74989;52.210;5.148;2024-03-23T04:53:50;100975.00;;;4.68;85.50
81680;BME280;74989;52.210;5.148;2024-03-23T04:56:17;100969.56;;;4.63;85.96
81680;BME280;74989;52.210;5.148;2024-03-23T04:58:44;100975.00;;;4.68;86.15
81680;BME280;74989;52.210;5.148;2024-03-23T05:01:11;100970.38;;;4.70;86.23
81680;BME280;74989;52.210;5.148;2024-03-23T05:03:37;100961.53;;;4.71;85.96
81680;BME280;74989;52.210;5.148;2024-03-23T05:06:04;100961.31;;;4.72;85.88
81680;BME280;74989;52.210;5.148;2024-03-23T05:08:30;100948.22;;;4.66;86.10
81680;BME280;74989;52.210;5.148;2024-03-23T05:10:57;100965.13;;;4.76;85.39
81680;BME280;74989;52.210;5.148;2024-03-23T05:13:23;100962.94;;;4.80;85.86
81680;BME280;74989;52.210;5.148;2024-03-23T05:15:52;100966.59;;;4.92;85.91
81680;BME280;74989;52.210;5.148;2024-03-23T05:18:19;100966.59;;;4.99;85.40
81680;BME280;74989;52.210;5.148;2024-03-23T05:20:45;100973.84;;;4.97;85.07
81680;BME280;74989;52.210;5.148;2024-03-23T05:23:11;100968.00;;;4.95;84.67
81680;BME280;74989;52.210;5.148;2024-03-23T05:25:37;100970.00;;;4.99;85.65
81680;BME280;74989;52.210;5.148;2024-03-23T05:28:03;100973.81;;;5.10;84.94
81680;BME280;74989;52.210;5.148;2024-03-23T05:30:30;100974.03;;;5.15;85.36
81680;BME280;74989;52.210;5.148;2024-03-23T05:32:57;100970.38;;;5.09;83.57
81680;BME280;74989;52.210;5.148;2024-03-23T05:35:24;100970.63;;;5.01;84.28
81680;BME280;74989;52.210;5.148;2024-03-23T05:37:50;100976.03;;;5.00;84.92
81680;BME280;74989;52.210;5.148;2024-03-23T05:40:16;100970.22;;;5.11;85.43
81680;BME280;74989;52.210;5.148;2024-03-23T05:42:42;100968.56;;;5.16;84.79
81680;BME280;74989;52.210;5.148;2024-03-23T05:45:09;100963.16;;;5.24;85.08
81680;BME280;74989;52.210;5.148;2024-03-23T05:47:34;100967.56;;;5.30;84.48
81680;BME280;74989;52.210;5.148;2024-03-23T05:50:02;100961.94;;;5.27;85.16
81680;BME280;74989;52.210;5.148;2024-03-23T05:52:29;100960.94;;;5.34;84.37
81680;BME280;74989;52.210;5.148;2024-03-23T05:54:55;100958.88;;;5.43;85.12
81680;BME280;74989;52.210;5.148;2024-03-23T05:57:21;100959.47;;;5.45;84.03
81680;BME280;74989;52.210;5.148;2024-03-23T05:59:48;100962.50;;;5.48;84.46
81680;BME280;74989;52.210;5.148;2024-03-23T06:02:13;100963.66;;;5.66;84.70
81680;BME280;74989;52.210;5.148;2024-03-23T06:04:40;100961.66;;;5.74;84.54
81680;BME280;74989;52.210;5.148;2024-03-23T06:07:07;100961.63;;;5.81;84.13
81680;BME280;74989;52.210;5.148;2024-03-23T06:09:39;100963.22;;;5.95;84.50
81680;BME280;74989;52.210;5.148;2024-03-23T06:12:05;100942.78;;;6.03;84.59
81680;BME280;74989;52.210;5.148;2024-03-23T06:14:31;100951.97;;;6.26;83.88
81680;BME280;74989;52.210;5.148;2024-03-23T06:16:58;100959.91;;;6.50;83.57
81680;BME280;74989;52.210;5.148;2024-03-23T06:19:25;100961.09;;;6.85;83.75
81680;BME280;74989;52.210;5.148;2024-03-23T06:21:52;100951.94;;;7.19;83.66
81680;BME280;74989;52.210;5.148;2024-03-23T06:24:21;100963.59;;;7.66;83.96
81680;BME280;74989;52.210;5.148;2024-03-23T06:26:46;100953.69;;;8.16;83.44
81680;BME280;74989;52.210;5.148;2024-03-23T06:29:13;100947.38;;;8.65;81.67
81680;BME280;74989;52.210;5.148;2024-03-23T06:31:39;100935.84;;;9.00;78.09
81680;BME280;74989;52.210;5.148;2024-03-23T06:34:05;100939.06;;;9.60;76.60
81680;BME280;74989;52.210;5.148;2024-03-23T06:36:31;100941.16;;;9.98;76.99
81680;BME280;74989;52.210;5.148;2024-03-23T06:38:58;100938.78;;;10.25;75.22
81680;BME280;74989;52.210;5.148;2024-03-23T06:41:25;100933.53;;;10.42;72.50
81680;BME280;74989;52.210;5.148;2024-03-23T06:43:55;100945.84;;;10.97;74.71
81680;BME280;74989;52.210;5.148;2024-03-23T06:46:22;100928.19;;;11.20;70.77
81680;BME280;74989;52.210;5.148;2024-03-23T06:48:48;100933.84;;;11.45;67.46
81680;BME280;74989;52.210;5.148;2024-03-23T06:51:14;100944.44;;;11.83;69.48
81680;BME280;74989;52.210;5.148;2024-03-23T06:53:40;100941.19;;;11.98;66.38
81680;BME280;74989;52.210;5.148;2024-03-23T06:56:07;100939.34;;;12.25;64.98
81680;BME280;74989;52.210;5.148;2024-03-23T06:58:34;100923.13;;;12.48;67.66
81680;BME280;74989;52.210;5.148;2024-03-23T07:01:00;100940.53;;;12.97;65.80
81680;BME280;74989;52.210;5.148;2024-03-23T07:03:26;100937.88;;;13.29;65.21
81680;BME280;74989;52.210;5.148;2024-03-23T07:05:53;100939.25;;;13.42;61.78
81680;BME280;74989;52.210;5.148;2024-03-23T07:08:23;100932.94;;;13.48;59.51
81680;BME280;74989;52.210;5.148;2024-03-23T07:10:49;100934.28;;;13.55;58.49
81680;BME280;74989;52.210;5.148;2024-03-23T07:13:15;100933.28;;;13.66;60.51
81680;BME280;74989;52.210;5.148;2024-03-23T07:15:43;100916.28;;;13.67;58.93
81680;BME280;74989;52.210;5.148;2024-03-23T07:18:16;100936.88;;;14.07;59.74
81680;BME280;74989;52.210;5.148;2024-03-23T07:20:52;100939.06;;;14.20;56.56
81680;BME280;74989;52.210;5.148;2024-03-23T07:23:18;100933.78;;;14.35;58.33
81680;BME280;74989;52.210;5.148;2024-03-23T07:25:44;100939.16;;;14.71;55.93
81680;BME280;74989;52.210;5.148;2024-03-23T07:28:10;100935.97;;;15.04;56.92
81680;BME280;74989;52.210;5.148;2024-03-23T07:30:37;100940.44;;;15.54;51.93
81680;BME280;74989;52.210;5.148;2024-03-23T07:33:04;100950.25;;;15.43;54.94
81680;BME280;74989;52.210;5.148;2024-03-23T07:35:31;100938.53;;;15.59;53.96
81680;BME280;74989;52.210;5.148;2024-03-23T07:37:57;100948.00;;;15.96;55.68
81680;BME280;74989;52.210;5.148;2024-03-23T07:40:25;100952.59;;;16.34;52.87
81680;BME280;74989;52.210;5.148;2024-03-23T07:42:51;100938.53;;;16.18;50.09
81680;BME280;74989;52.210;5.148;2024-03-23T07:45:18;100939.53;;;15.73;51.84
81680;BME280;74989;52.210;5.148;2024-03-23T07:47:44;100946.50;;;15.64;51.62
81680;BME280;74989;52.210;5.148;2024-03-23T07:50:12;100927.59;;;15.66;51.44
81680;BME280;74989;52.210;5.148;2024-03-23T07:52:38;100932.03;;;16.34;48.68
81680;BME280;74989;52.210;5.148;2024-03-23T07:55:05;100927.75;;;15.90;50.08
81680;BME280;74989;52.210;5.148;2024-03-23T07:57:31;100927.19;;;14.78;52.02
81680;BME280;74989;52.210;5.148;2024-03-23T07:59:58;100921.56;;;14.44;51.82
81680;BME280;74989;52.210;5.148;2024-03-23T08:02:23;100928.66;;;14.09;53.46
81680;BME280;74989;52.210;5.148;2024-03-23T08:04:50;100938.19;;;13.95;53.16
81680;BME280;74989;52.210;5.148;2024-03-23T08:07:17;100950.94;;;13.41;55.73
81680;BME280;74989;52.210;5.148;2024-03-23T08:09:44;100942.66;;;13.32;55.53
81680;BME280;74989;52.210;5.148;2024-03-23T08:12:10;100932.81;;;13.28;53.53
81680;BME280;74989;52.210;5.148;2024-03-23T08:14:36;100940.09;;;13.47;55.25
81680;BME280;74989;52.210;5.148;2024-03-23T08:17:02;100933.59;;;13.80;55.56
81680;BME280;74989;52.210;5.148;2024-03-23T08:19:28;100933.56;;;14.62;52.42
81680;BME280;74989;52.210;5.148;2024-03-23T08:21:54;100932.75;;;14.82;51.67
81680;BME280;74989;52.210;5.148;2024-03-23T08:24:22;100938.09;;;14.62;51.23
81680;BME280;74989;52.210;5.148;2024-03-23T08:26:48;100923.38;;;14.24;51.56
81680;BME280;74989;52.210;5.148;2024-03-23T08:29:14;100927.16;;;14.38;49.45
81680;BME280;74989;52.210;5.148;2024-03-23T08:31:40;100932.41;;;13.51;51.23
81680;BME280;74989;52.210;5.148;2024-03-23T08:34:07;100939.66;;;13.19;53.42
81680;BME280;74989;52.210;5.148;2024-03-23T08:36:42;100943.72;;;12.99;53.55
81680;BME280;74989;52.210;5.148;2024-03-23T08:39:10;100951.56;;;12.84;53.66
81680;BME280;74989;52.210;5.148;2024-03-23T08:41:37;100925.09;;;13.26;53.59
81680;BME280;74989;52.210;5.148;2024-03-23T08:44:04;100952.28;;;14.00;50.05
81680;BME280;74989;52.210;5.148;2024-03-23T08:46:29;100923.34;;;14.19;50.10
81680;BME280;74989;52.210;5.148;2024-03-23T08:48:56;100926.13;;;14.44;50.90
81680;BME280;74989;52.210;5.148;2024-03-23T08:51:22;100925.31;;;14.43;50.20
81680;BME280;74989;52.210;5.148;2024-03-23T08:53:49;100934.72;;;13.89;48.88
81680;BME280;74989;52.210;5.148;2024-03-23T08:56:15;100938.84;;;13.18;50.98
81680;BME280;74989;52.210;5.148;2024-03-23T08:58:44;100943.09;;;13.19;53.10
81680;BME280;74989;52.210;5.148;2024-03-23T09:01:12;100937.91;;;13.96;54.90
81680;BME280;74989;52.210;5.148;2024-03-23T09:03:41;100909.91;;;14.81;51.15
81680;BME280;74989;52.210;5.148;2024-03-23T09:06:07;100928.56;;;15.85;48.43
81680;BME280;74989;52.210;5.148;2024-03-23T09:08:34;100927.03;;;16.23;48.63
81680;BME280;74989;52.210;5.148;2024-03-23T09:11:04;100922.41;;;15.90;46.74
81680;BME280;74989;52.210;5.148;2024-03-23T09:13:32;100927.53;;;15.76;48.58
81680;BME280;74989;52.210;5.148;2024-03-23T09:15:59;100922.06;;;16.50;46.13
81680;BME280;74989;52.210;5.148;2024-03-23T09:18:26;100909.25;;;17.14;43.66
81680;BME280;74989;52.210;5.148;2024-03-23T09:20:52;100929.81;;;16.52;43.56
81680;BME280;74989;52.210;5.148;2024-03-23T09:23:20;100919.88;;;15.59;46.74
81680;BME280;74989;52.210;5.148;2024-03-23T09:25:45;100929.84;;;14.88;49.69
81680;BME280;74989;52.210;5.148;2024-03-23T09:28:12;100925.31;;;14.43;48.75
81680;BME280;74989;52.210;5.148;2024-03-23T09:30:38;100927.75;;;13.78;49.48
81680;BME280;74989;52.210;5.148;2024-03-23T09:33:09;100931.78;;;13.34;50.85
81680;BME280;74989;52.210;5.148;2024-03-23T09:35:36;100934.66;;;13.27;53.14
81680;BME280;74989;52.210;5.148;2024-03-23T09:38:03;100921.22;;;13.44;53.07
81680;BME280;74989;52.210;5.148;2024-03-23T09:40:29;100927.97;;;13.71;52.42
81680;BME280;74989;52.210;5.148;2024-03-23T09:42:57;100934.84;;;13.62;53.58
81680;BME280;74989;52.210;5.148;2024-03-23T09:45:26;100943.22;;;13.02;53.08
81680;BME280;74989;52.210;5.148;2024-03-23T09:47:54;100940.75;;;12.32;53.96
81680;BME280;74989;52.210;5.148;2024-03-23T09:50:23;100933.25;;;12.03;55.60
81680;BME280;74989;52.210;5.148;2024-03-23T09:52:48;100937.97;;;11.74;54.12
81680;BME280;74989;52.210;5.148;2024-03-23T09:55:15;100934.59;;;12.00;54.57
81680;BME280;74989;52.210;5.148;2024-03-23T09:57:41;100921.50;;;12.74;54.46
81680;BME280;74989;52.210;5.148;2024-03-23T10:00:09;100931.31;;;13.47;51.36
81680;BME280;74989;52.210;5.148;2024-03-23T10:02:35;100923.47;;;12.88;51.95
81680;BME280;74989;52.210;5.148;2024-03-23T10:05:02;100933.09;;;12.36;55.19
81680;BME280;74989;52.210;5.148;2024-03-23T10:07:29;100935.31;;;12.44;57.74
81680;BME280;74989;52.210;5.148;2024-03-23T10:09:56;100923.66;;;13.55;54.96
81680;BME280;74989;52.210;5.148;2024-03-23T10:12:23;100906.59;;;14.03;51.53
81680;BME280;74989;52.210;5.148;2024-03-23T10:14:50;100928.53;;;13.78;50.18
81680;BME280;74989;52.210;5.148;2024-03-23T10:17:17;100928.59;;;13.94;49.36
81680;BME280;74989;52.210;5.148;2024-03-23T10:19:44;100918.34;;;14.27;47.83
81680;BME280;74989;52.210;5.148;2024-03-23T10:22:13;100924.00;;;14.71;48.62
81680;BME280;74989;52.210;5.148;2024-03-23T10:24:41;100920.78;;;14.84;47.99
81680;BME280;74989;52.210;5.148;2024-03-23T10:27:07;100923.41;;;15.35;47.75
81680;BME280;74989;52.210;5.148;2024-03-23T10:29:33;100920.47;;;16.10;44.84
81680;BME280;74989;52.210;5.148;2024-03-23T10:32:08;100909.94;;;17.01;43.32
81680;BME280;74989;52.210;5.148;2024-03-23T10:34:35;100912.47;;;16.88;43.72
81680;BME280;74989;52.210;5.148;2024-03-23T10:37:02;100926.63;;;16.06;42.55
81680;BME280;74989;52.210;5.148;2024-03-23T10:39:32;100915.13;;;15.46;43.06
81680;BME280;74989;52.210;5.148;2024-03-23T10:42:02;100915.72;;;14.42;44.73
81680;BME280;74989;52.210;5.148;2024-03-23T10:44:28;100904.28;;;14.42;46.79
81680;BME280;74989;52.210;5.148;2024-03-23T10:46:56;100920.13;;;15.63;46.33
81680;BME280;74989;52.210;5.148;2024-03-23T10:49:25;100917.88;;;15.90;44.37
81680;BME280;74989;52.210;5.148;2024-03-23T10:51:56;100910.97;;;15.89;45.37
81680;BME280;74989;52.210;5.148;2024-03-23T10:54:22;100907.28;;;16.68;43.57
81680;BME280;74989;52.210;5.148;2024-03-23T10:56:52;100888.25;;;15.97;42.31
81680;BME280;74989;52.210;5.148;2024-03-23T10:59:20;100905.25;;;15.42;43.35
81680;BME280;74989;52.210;5.148;2024-03-23T11:01:55;100889.16;;;16.26;44.99
81680;BME280;74989;52.210;5.148;2024-03-23T11:04:39;100903.50;;;17.55;41.59
81680;BME280;74989;52.210;5.148;2024-03-23T11:07:29;100910.78;;;17.44;41.99
81680;BME280;74989;52.210;5.148;2024-03-23T11:09:55;100908.47;;;16.52;42.71
81680;BME280;74989;52.210;5.148;2024-03-23T11:12:26;100930.50;;;15.64;42.88
81680;BME280;74989;52.210;5.148;2024-03-23T11:14:55;100910.84;;;16.09;42.34
81680;BME280;74989;52.210;5.148;2024-03-23T11:17:25;100917.94;;;16.29;44.70
81680;BME280;74989;52.210;5.148;2024-03-23T11:19:56;100883.75;;;17.27;42.02
81680;BME280;74989;52.210;5.148;2024-03-23T11:22:38;100903.38;;;18.26;38.43
81680;BME280;74989;52.210;5.148;2024-03-23T11:25:15;100897.94;;;18.49;39.63
81680;BME280;74989;52.210;5.148;2024-03-23T11:27:43;100902.84;;;19.07;37.80
81680;BME280;74989;52.210;5.148;2024-03-23T11:30:15;100888.22;;;19.45;36.92
81680;BME280;74989;52.210;5.148;2024-03-23T11:32:44;100896.69;;;18.61;39.44
81680;BME280;74989;52.210;5.148;2024-03-23T11:35:09;100905.63;;;17.29;39.38
81680;BME280;74989;52.210;5.148;2024-03-23T11:37:37;100904.13;;;16.61;41.01
81680;BME280;74989;52.210;5.148;2024-03-23T11:40:19;100904.88;;;15.78;42.05
81680;BME280;74989;52.210;5.148;2024-03-23T11:42:46;100903.59;;;16.20;42.95
81680;BME280;74989;52.210;5.148;2024-03-23T11:45:13;100895.38;;;17.65;40.32
81680;BME280;74989;52.210;5.148;2024-03-23T11:47:41;100884.41;;;18.22;39.60
81680;BME280;74989;52.210;5.148;2024-03-23T11:50:07;100883.78;;;18.95;38.65
81680;BME280;74989;52.210;5.148;2024-03-23T11:52:36;100887.16;;;18.87;38.05
81680;BME280;74989;52.210;5.148;2024-03-23T11:55:05;100877.25;;;19.14;37.48
81680;BME280;74989;52.210;5.148;2024-03-23T11:57:33;100878.53;;;18.39;38.58
81680;BME280;74989;52.210;5.148;2024-03-23T11:59:59;100889.75;;;17.38;39.18
81680;BME280;74989;52.210;5.148;2024-03-23T12:02:27;100896.00;;;16.37;41.84
81680;BME280;74989;52.210;5.148;2024-03-23T12:04:53;100889.72;;;15.74;42.27
81680;BME280;74989;52.210;5.148;2024-03-23T12:07:20;100889.25;;;15.57;42.23
81680;BME280;74989;52.210;5.148;2024-03-23T12:10:03;100883.72;;;17.03;40.54
81680;BME280;74989;52.210;5.148;2024-03-23T12:12:31;100862.72;;;18.24;37.68
81680;BME280;74989;52.210;5.148;2024-03-23T12:15:02;100874.22;;;18.06;38.31
81680;BME280;74989;52.210;5.148;2024-03-23T12:17:32;100859.94;;;18.66;36.52
81680;BME280;74989;52.210;5.148;2024-03-23T12:19:58;100868.22;;;19.10;37.32
81680;BME280;74989;52.210;5.148;2024-03-23T12:22:25;100862.31;;;18.68;37.96
81680;BME280;74989;52.210;5.148;2024-03-23T12:24:52;100858.41;;;18.60;37.70
81680;BME280;74989;52.210;5.148;2024-03-23T12:27:18;100862.63;;;18.47;39.34
81680;BME280;74989;52.210;5.148;2024-03-23T12:29:44;100866.94;;;18.43;38.31
81680;BME280;74989;52.210;5.148;2024-03-23T12:32:12;100854.09;;;18.78;37.97
81680;BME280;74989;52.210;5.148;2024-03-23T12:34:40;100838.19;;;18.54;37.37
81680;BME280;74989;52.210;5.148;2024-03-23T12:37:06;100850.47;;;19.01;36.79
81680;BME280;74989;52.210;5.148;2024-03-23T12:39:32;100846.38;;;19.31;35.20
81680;BME280;74989;52.210;5.148;2024-03-23T12:42:02;100852.34;;;19.28;34.95
81680;BME280;74989;52.210;5.148;2024-03-23T12:44:28;100846.63;;;19.48;35.72
81680;BME280;74989;52.210;5.148;2024-03-23T12:46:55;100825.84;;;19.26;34.63
81680;BME280;74989;52.210;5.148;2024-03-23T12:49:20;100843.31;;;19.51;33.84
81680;BME280;74989;52.210;5.148;2024-03-23T12:51:54;100832.59;;;19.51;33.55
81680;BME280;74989;52.210;5.148;2024-03-23T12:54:20;100857.19;;;20.16;34.14
81680;BME280;74989;52.210;5.148;2024-03-23T12:56:47;100831.84;;;20.44;34.19
81680;BME280;74989;52.210;5.148;2024-03-23T12:59:12;100845.75;;;20.77;33.88
81680;BME280;74989;52.210;5.148;2024-03-23T13:01:39;100855.16;;;19.36;34.85
81680;BME280;74989;52.210;5.148;2024-03-23T13:04:05;100844.19;;;18.27;34.85
81680;BME280;74989;52.210;5.148;2024-03-23T13:06:32;100845.28;;;18.26;34.36
81680;BME280;74989;52.210;5.148;2024-03-23T13:09:01;100854.75;;;17.39;35.58
81680;BME280;74989;52.210;5.148;2024-03-23T13:11:28;100859.38;;;16.14;37.15
81680;BME280;74989;52.210;5.148;2024-03-23T13:13:54;100852.06;;;15.22;39.02
81680;BME280;74989;52.210;5.148;2024-03-23T13:16:21;100866.22;;;15.07;40.69
81680;BME280;74989;52.210;5.148;2024-03-23T13:18:47;100852.66;;;14.93;42.34
81680;BME280;74989;52.210;5.148;2024-03-23T13:21:13;100852.91;;;15.07;43.65
81680;BME280;74989;52.210;5.148;2024-03-23T13:23:39;100848.63;;;15.21;43.22
81680;BME280;74989;52.210;5.148;2024-03-23T13:26:09;100850.53;;;14.95;44.53
81680;BME280;74989;52.210;5.148;2024-03-23T13:28:34;100855.09;;;14.39;46.22
81680;BME280;74989;52.210;5.148;2024-03-23T13:31:01;100865.88;;;13.83;49.59
81680;BME280;74989;52.210;5.148;2024-03-23T13:33:29;100835.31;;;13.13;51.12
81680;BME280;74989;52.210;5.148;2024-03-23T13:35:58;100853.63;;;12.73;52.12
81680;BME280;74989;52.210;5.148;2024-03-23T13:38:24;100854.59;;;12.30;52.00
81680;BME280;74989;52.210;5.148;2024-03-23T13:40:51;100849.09;;;12.10;52.27
81680;BME280;74989;52.210;5.148;2024-03-23T13:43:18;100856.38;;;11.93;52.58
81680;BME280;74989;52.210;5.148;2024-03-23T13:45:46;100843.13;;;11.93;50.67
81680;BME280;74989;52.210;5.148;2024-03-23T13:48:12;100833.41;;;12.03;50.83